Erie International Tom Ridge Field Erie US
ICAO: KERI
IATA: ERI
Category: Large
Scheduled Services: Yes

Elevation: 732 ft
TransAlt. 18000 ft.

Airport Communications:
APP/DEP:121
ATIS:120.35
CLNC DEL:126.8
CTAF:118.1
GND:121.9
ALTOONA RDO:109.4
TWR:118.1
UNICOM:122.95

KERI Zoom In..

If you have problems with the map follow the link
https://www.worldairports.se/pages/airport.php?
ICAO=KERI

Runways:

(A) RW 02 length 3508 ft width 150 ft
---- / hdg 20

(B) RW 06 length 8420 ft width 150 ft
ILS 110.30 / hdg 64

(C) RW 20 length 3508 ft width 150 ft
---- / hdg 200

(D) RW 24 length 8420 ft width 150 ft
ILS 110.30 / hdg 244

Location; KERI
Day. 18 / Time. 05.51 Zulu
* Altimeter: 30.34
* Temperature: 07° c. 44.6°f.
* Wind from: 320° Speed 14 kn with Gusts up to 23 kn.
Dewpoint: 00° c.
Visibility: 10 Statute Miles.
Clouds: Few 2900 ft.
Clouds: Broken 3600 ft.
Clouds: Overcast 4800 ft.
Conditions: Light Rain.

KERI 180551Z 32014G23KT 10SM -RA FEW029 BKN036 OVC048 07/00 A3034 RMK AO2 RAB18 SLP279 P0000 60000 T00670000 10089 20061 52019


Wind From 320°
Speed 14 kn.

 
 
jpsmedia.com for Web Design worldairports.se 2018   terms of use